Golden Iris — 3FZK4 — position and weather

sailwx.info

Track history (hours):
 
Tides and Currents Weather Stations Pressure Air Temp Water Temp Dewpoint Dewpoint Depression Visibility Wind Speed Wind Dir Waves Ship Positions

Golden Iris

Last reported at 2015-Nov-20 06:09 UTC. Time now 2016-Feb-10 00:45 UTC.
Position N 38°22' E 023°45'.
Warning: this ship's position is months out of date.

Length 180 m; draft 6 m.

Type: Passenger vessel. MMSI: 371771000.

Date/timePositionNaut miles runAvg speedWind from/ knotsBaromVisibWave heightAir tempDewpointWater temp
2015-Nov-20 06:09N 38°22' E 023°45'25 9.3
2015-Nov-20 03:27N 38°06' E 024°10'910.1
2015-Nov-20 02:32N 37°57' E 024°13'14 9.6
2015-Nov-20 01:07N 37°49' E 024°26'7 9.5
2015-Nov-20 00:22N 37°41' E 024°27'2910.0
2015-Nov-19 21:28N 37°15' E 024°43'1010.4
2015-Nov-19 20:33N 37°07' E 024°48'29 9.6
2015-Nov-19 17:31N 36°51' E 025°19'1010.5
2015-Nov-19 16:31N 36°45' E 025°30'1110.1
2015-Nov-19 15:27N 36°40' E 025°41'8 8.0
2015-Nov-19 14:28N 36°36' E 025°50'1010.8
2015-Nov-19 13:32N 36°31' E 026°01'1612.1
2015-Nov-19 12:14N 36°23' E 026°18'1011.6
2015-Nov-19 11:23N 36°18' E 026°28'45911.8
2015-Nov-17 20:33N 32°54' E 034°48'  
2015-Nov-15 03:33N 32°53' E 034°53'10 9.8
2015-Nov-15 02:33N 32°55' E 034°42'47 9.4
2015-Nov-14 21:32N 33°34' E 034°11'1010.6
2015-Nov-14 20:33N 33°44' E 034°05'1210.5
2015-Nov-14 19:23N 33°55' E 033°59'910.6
2015-Nov-14 18:34N 34°03' E 033°56'1010.5
2015-Nov-14 17:34N 34°14' E 033°54'1110.6
2015-Nov-14 16:33N 34°24' E 033°51'1111.0
2015-Nov-14 15:33N 34°34' E 033°47'1110.7
2015-Nov-14 14:33N 34°45' E 033°44'12 0.6
2015-Nov-13 19:31N 34°56' E 033°39'132 5.4
2015-Nov-12 19:16N 32°56' E 034°45'8 9.4
2015-Nov-12 18:28N 32°53' E 034°53'3 0.2
2015-Nov-12 05:30N 32°54' E 034°50'  
Track history (hours):
 
Tides and Currents Weather Stations Pressure Air Temp Water Temp Dewpoint Dewpoint Depression Visibility Wind Speed Wind Dir Waves Ship Positions

Golden Iris

Last reported at 2015-Nov-20 06:09 UTC. Time now 2016-Feb-10 00:45 UTC.
Position N 38°22' E 023°45'.
Warning: this ship's position is months out of date.

Length 180 m; draft 6 m.

Type: Passenger vessel. MMSI: 371771000.

Date/timePositionNaut miles runAvg speedWind from/ knotsBaromVisibWave heightAir tempDewpointWater temp
2015-Nov-20 06:09N 38°22' E 023°45'25 9.3
2015-Nov-20 03:27N 38°06' E 024°10'910.1
2015-Nov-20 02:32N 37°57' E 024°13'14 9.6
2015-Nov-20 01:07N 37°49' E 024°26'7 9.5
2015-Nov-20 00:22N 37°41' E 024°27'2910.0
2015-Nov-19 21:28N 37°15' E 024°43'1010.4
2015-Nov-19 20:33N 37°07' E 024°48'29 9.6
2015-Nov-19 17:31N 36°51' E 025°19'1010.5
2015-Nov-19 16:31N 36°45' E 025°30'1110.1
2015-Nov-19 15:27N 36°40' E 025°41'8 8.0
2015-Nov-19 14:28N 36°36' E 025°50'1010.8
2015-Nov-19 13:32N 36°31' E 026°01'1612.1
2015-Nov-19 12:14N 36°23' E 026°18'1011.6
2015-Nov-19 11:23N 36°18' E 026°28'45911.8
2015-Nov-17 20:33N 32°54' E 034°48'  
2015-Nov-15 03:33N 32°53' E 034°53'10 9.8
2015-Nov-15 02:33N 32°55' E 034°42'47 9.4
2015-Nov-14 21:32N 33°34' E 034°11'1010.6
2015-Nov-14 20:33N 33°44' E 034°05'1210.5
2015-Nov-14 19:23N 33°55' E 033°59'910.6
2015-Nov-14 18:34N 34°03' E 033°56'1010.5
2015-Nov-14 17:34N 34°14' E 033°54'1110.6
2015-Nov-14 16:33N 34°24' E 033°51'1111.0
2015-Nov-14 15:33N 34°34' E 033°47'1110.7
2015-Nov-14 14:33N 34°45' E 033°44'12 0.6
2015-Nov-13 19:31N 34°56' E 033°39'132 5.4
2015-Nov-12 19:16N 32°56' E 034°45'8 9.4
2015-Nov-12 18:28N 32°53' E 034°53'3 0.2
2015-Nov-12 05:30N 32°54' E 034°50'  

Dump ship's entire track history